Time;durP1;ratioP1;P1;durP2;ratioP2;P2;SDS_P1;SDS_P2;PMS_P1;PMS_P2;Temp;Humidity;BMP_temperature;BMP_pressure;BME280_temperature;BME280_humidity;BME280_pressure;Samples;Min_cycle;Max_cycle;Signal;HPM_P1;HPM_P2
2021/03/12 00:01:54;;;;;;;;;;;7.10;99.90;;;;;;4935094;29;20312;-89
2021/03/12 00:04:20;;;;;;;;;;;7.10;99.90;;;;;;4937083;29;19911;-88
2021/03/12 00:06:58;;;;;;;;;;;7.20;99.90;;;;;;4940021;29;19911;-90
2021/03/12 00:09:29;;;;;;;;;;;7.20;99.90;;;;;;4953619;28;19914;-90
2021/03/12 00:12:08;;;;;;;;;;;7.20;99.90;;;;;;4921263;29;19915;-88
2021/03/12 00:15:05;;;;;;;;;;;7.20;99.90;;;;;;4937417;29;19921;-90
2021/03/12 00:17:46;;;;;;;;;;;7.20;99.90;;;;;;4935421;29;19911;-88
2021/03/12 00:20:42;;;;;;;;;;;7.20;99.90;;;;;;4936954;29;19911;-90
2021/03/12 00:23:16;;;;;;;;;;;7.20;99.90;;;;;;4935786;29;19919;-89
2021/03/12 00:25:51;;;;;;;;;;;7.20;99.90;;;;;;4938549;29;19942;-90
2021/03/12 00:28:27;;;;;;;;;;;7.30;99.90;;;;;;4939133;29;20420;-89
2021/03/12 00:31:00;;;;;;;;;;;7.30;99.90;;;;;;4939141;28;19911;-89
2021/03/12 00:33:31;;;;;;;;;;;7.20;99.90;;;;;;4942772;29;19911;-88
2021/03/12 00:35:57;;;;;;;;;;;7.30;99.90;;;;;;4925891;29;20357;-88
2021/03/12 00:38:26;;;;;;;;;;;7.30;99.90;;;;;;4938732;29;19930;-90
2021/03/12 00:41:03;;;;;;;;;;;7.20;99.90;;;;;;4941042;29;20448;-89
2021/03/12 00:43:37;;;;;;;;;;;7.20;99.90;;;;;;4959709;28;19914;-87
2021/03/12 00:46:07;;;;;;;;;;;7.20;99.90;;;;;;4963600;28;19957;-89
2021/03/12 00:48:38;;;;;;;;;;;7.20;99.90;;;;;;4982144;28;19917;-88
2021/03/12 00:51:15;;;;;;;;;;;7.20;99.90;;;;;;4960522;28;19910;-89
2021/03/12 00:53:49;;;;;;;;;;;7.20;99.90;;;;;;4960930;28;19917;-90
2021/03/12 00:56:35;;;;;;;;;;;7.20;99.90;;;;;;4979576;28;19911;-89
2021/03/12 00:59:06;;;;;;;;;;;7.20;99.90;;;;;;4960293;28;19910;-89
2021/03/12 01:01:32;;;;;;;;;;;7.20;99.90;;;;;;4960407;29;19966;-89
2021/03/12 01:04:01;;;;;;;;;;;7.20;99.90;;;;;;4943315;29;19919;-88
2021/03/12 01:06:51;;;;;;;;;;;7.20;99.90;;;;;;4958377;29;19911;-91
2021/03/12 01:09:20;;;;;;;;;;;7.20;99.90;;;;;;4943147;29;19935;-88
2021/03/12 01:11:57;;;;;;;;;;;7.10;99.90;;;;;;4947889;29;19938;-88
2021/03/12 01:14:32;;;;;;;;;;;7.20;99.90;;;;;;4953601;29;19911;-88
2021/03/12 01:17:07;;;;;;;;;;;7.10;99.90;;;;;;4954008;29;19922;-89
2021/03/12 01:19:56;;;;;;;;;;;7.10;99.90;;;;;;4950164;29;20422;-88
2021/03/12 01:22:25;;;;;;;;;;;7.20;99.90;;;;;;4929190;29;20315;-89
2021/03/12 01:24:53;;;;;;;;;;;7.10;99.90;;;;;;4920846;29;19915;-90
2021/03/12 01:27:22;;;;;;;;;;;7.10;99.90;;;;;;4923104;29;19919;-89
2021/03/12 01:30:07;;;;;;;;;;;7.10;99.90;;;;;;4922383;29;19917;-89
2021/03/12 01:32:36;;;;;;;;;;;7.00;99.90;;;;;;4923423;29;19935;-89
2021/03/12 01:35:06;;;;;;;;;;;7.00;99.90;;;;;;4923930;29;19957;-89
2021/03/12 01:37:40;;;;;;;;;;;7.00;99.90;;;;;;4922394;29;20459;-90
2021/03/12 01:40:29;;;;;;;;;;;7.00;99.90;;;;;;4921130;29;19981;-89
2021/03/12 01:43:30;;;;;;;;;;;7.00;99.90;;;;;;4938697;29;20372;-90
2021/03/12 01:46:18;;;;;;;;;;;7.00;99.90;;;;;;4922705;29;19958;-90
2021/03/12 01:48:54;;;;;;;;;;;7.00;99.90;;;;;;4939391;29;19918;-89
2021/03/12 01:51:25;;;;;;;;;;;7.00;99.90;;;;;;4965849;28;19910;-88
2021/03/12 01:53:55;;;;;;;;;;;6.90;99.90;;;;;;4955666;29;19910;-91
2021/03/12 01:56:33;;;;;;;;;;;7.00;99.90;;;;;;4955004;29;20438;-91
2021/03/12 01:59:26;;;;;;;;;;;6.90;99.90;;;;;;4941975;29;19969;-90
2021/03/12 02:01:52;;;;;;;;;;;6.90;99.90;;;;;;4958717;29;19922;-88
2021/03/12 02:04:24;;;;;;;;;;;7.00;99.90;;;;;;4942805;29;19915;-89
2021/03/12 02:06:51;;;;;;;;;;;6.90;99.90;;;;;;4942146;29;19914;-89
2021/03/12 02:09:18;;;;;;;;;;;7.00;99.90;;;;;;4942544;29;19954;-89
2021/03/12 02:12:04;;;;;;;;;;;6.90;99.90;;;;;;4938901;29;19958;-89
2021/03/12 02:14:54;;;;;;;;;;;6.90;99.90;;;;;;4903304;29;19998;-89
2021/03/12 02:17:32;;;;;;;;;;;6.90;99.90;;;;;;4922003;29;19958;-89
2021/03/12 02:20:08;;;;;;;;;;;6.90;99.90;;;;;;4938479;29;19999;-88
2021/03/12 02:22:41;;;;;;;;;;;6.90;99.90;;;;;;4927421;29;19927;-90
2021/03/12 02:25:18;;;;;;;;;;;6.90;99.90;;;;;;4931191;29;20376;-90
2021/03/12 02:27:48;;;;;;;;;;;6.90;99.90;;;;;;4922740;29;19927;-89
2021/03/12 02:30:32;;;;;;;;;;;6.80;99.90;;;;;;4923722;29;19974;-88
2021/03/12 02:33:03;;;;;;;;;;;6.80;99.90;;;;;;4939098;29;20001;-88
2021/03/12 02:35:41;;;;;;;;;;;6.90;99.90;;;;;;4922577;29;19918;-89
2021/03/12 02:38:24;;;;;;;;;;;6.90;99.90;;;;;;4922617;29;19958;-88
2021/03/12 02:40:57;;;;;;;;;;;6.80;99.90;;;;;;4938020;29;19929;-90
2021/03/12 02:43:30;;;;;;;;;;;6.80;99.90;;;;;;4957562;28;19937;-88
2021/03/12 02:46:16;;;;;;;;;;;6.80;99.90;;;;;;4978060;28;19934;-88
2021/03/12 02:48:49;;;;;;;;;;;6.80;99.90;;;;;;4960449;28;19914;-88
2021/03/12 02:51:21;;;;;;;;;;;6.80;99.90;;;;;;4958844;28;20050;-89
2021/03/12 02:53:50;;;;;;;;;;;6.70;99.90;;;;;;4960015;28;19918;-89
2021/03/12 02:56:42;;;;;;;;;;;6.70;99.90;;;;;;4918324;29;19917;-89
2021/03/12 02:59:34;;;;;;;;;;;6.70;99.90;;;;;;4903175;29;19915;-87
2021/03/12 03:02:02;;;;;;;;;;;6.70;99.90;;;;;;4902519;29;19915;-90
2021/03/12 03:04:46;;;;;;;;;;;6.70;99.90;;;;;;4903094;29;19926;-89
2021/03/12 03:07:17;;;;;;;;;;;6.60;99.90;;;;;;4881690;29;19912;-90
2021/03/12 03:09:46;;;;;;;;;;;6.70;99.90;;;;;;4881375;29;19912;-90
2021/03/12 03:12:32;;;;;;;;;;;6.70;99.90;;;;;;4872588;29;19983;-89
2021/03/12 03:15:01;;;;;;;;;;;6.60;99.90;;;;;;4865547;29;19949;-86
2021/03/12 03:18:18;;;;;;;;;;;6.70;99.90;;;;;;4862483;29;19916;-89
2021/03/12 03:20:45;;;;;;;;;;;6.70;99.90;;;;;;4857210;29;20274;-89
2021/03/12 03:23:21;;;;;;;;;;;6.70;99.90;;;;;;4859000;29;20480;-88
2021/03/12 03:26:06;;;;;;;;;;;6.60;99.90;;;;;;4863279;29;19912;-87
2021/03/12 03:28:46;;;;;;;;;;;6.60;99.90;;;;;;4872330;29;19960;-89
2021/03/12 03:31:14;;;;;;;;;;;6.60;99.90;;;;;;4880555;29;19912;-89
2021/03/12 03:33:40;;;;;;;;;;;6.60;99.90;;;;;;4880606;29;19928;-89
2021/03/12 03:36:11;;;;;;;;;;;6.60;99.90;;;;;;4880313;29;19912;-89
2021/03/12 03:38:42;;;;;;;;;;;6.50;99.90;;;;;;4842888;29;19917;-89
2021/03/12 03:41:23;;;;;;;;;;;6.60;99.90;;;;;;4843550;29;19925;-89
2021/03/12 03:44:00;;;;;;;;;;;6.60;99.90;;;;;;4842955;29;19937;-88
2021/03/12 03:46:31;;;;;;;;;;;6.50;99.90;;;;;;4841082;29;19916;-88
2021/03/12 03:49:11;;;;;;;;;;;6.50;99.90;;;;;;4864412;29;19919;-88
2021/03/12 03:51:47;;;;;;;;;;;6.50;99.90;;;;;;4919184;29;19910;-89
2021/03/12 03:54:40;;;;;;;;;;;6.50;99.90;;;;;;4935841;29;19911;-88
2021/03/12 03:57:21;;;;;;;;;;;6.40;99.90;;;;;;4920356;29;20399;-88
2021/03/12 04:00:09;;;;;;;;;;;6.40;99.90;;;;;;4935985;29;19914;-89
2021/03/12 04:02:49;;;;;;;;;;;6.40;99.90;;;;;;4905209;29;20415;-89
2021/03/12 04:05:20;;;;;;;;;;;6.40;99.90;;;;;;4921132;29;19915;-89
2021/03/12 04:07:53;;;;;;;;;;;6.40;99.90;;;;;;4936561;29;20320;-90
2021/03/12 04:10:26;;;;;;;;;;;6.40;99.90;;;;;;4951273;28;20420;-88
2021/03/12 04:12:58;;;;;;;;;;;6.40;99.90;;;;;;4956841;28;20023;-89
2021/03/12 04:15:24;;;;;;;;;;;6.30;99.90;;;;;;4956900;28;19914;-89
2021/03/12 04:18:03;;;;;;;;;;;6.20;99.90;;;;;;4959191;28;20362;-89
2021/03/12 04:20:33;;;;;;;;;;;6.10;99.90;;;;;;4942759;28;19914;-89
2021/03/12 04:22:58;;;;;;;;;;;6.10;99.90;;;;;;4942134;28;19922;-89
2021/03/12 04:25:26;;;;;;;;;;;6.00;99.90;;;;;;4956100;28;19925;-90
2021/03/12 04:28:30;;;;;;;;;;;5.90;99.90;;;;;;4974368;28;19942;-89
2021/03/12 04:31:00;;;;;;;;;;;5.80;99.90;;;;;;4957972;28;19922;-88
2021/03/12 04:33:32;;;;;;;;;;;5.70;99.90;;;;;;4927497;28;20009;-89
2021/03/12 04:36:16;;;;;;;;;;;5.60;99.90;;;;;;4976969;28;20264;-86
2021/03/12 04:38:44;;;;;;;;;;;5.50;99.90;;;;;;4959191;28;19954;-88
2021/03/12 04:41:22;;;;;;;;;;;5.40;99.90;;;;;;4936466;29;20408;-90
2021/03/12 04:44:20;;;;;;;;;;;5.40;99.90;;;;;;4920726;29;19938;-89
2021/03/12 04:46:45;;;;;;;;;;;5.40;99.90;;;;;;4921071;29;20005;-89
2021/03/12 04:49:14;;;;;;;;;;;5.30;99.90;;;;;;4918184;29;20010;-90
2021/03/12 04:51:43;;;;;;;;;;;5.20;99.90;;;;;;4936201;29;19947;-88
2021/03/12 04:54:14;;;;;;;;;;;5.20;99.90;;;;;;4920492;29;19915;-88
2021/03/12 04:56:48;;;;;;;;;;;5.10;99.90;;;;;;4920628;29;19934;-88
2021/03/12 04:59:17;;;;;;;;;;;5.10;99.90;;;;;;4917661;29;19911;-87
2021/03/12 05:01:57;;;;;;;;;;;5.10;99.90;;;;;;4935586;29;20009;-87
2021/03/12 05:04:33;;;;;;;;;;;5.00;99.90;;;;;;4933926;29;19927;-88
2021/03/12 05:07:17;;;;;;;;;;;5.00;99.90;;;;;;4920968;29;19962;-89
2021/03/12 05:09:59;;;;;;;;;;;5.00;99.90;;;;;;4935033;29;19922;-89
2021/03/12 05:12:29;;;;;;;;;;;4.90;99.90;;;;;;4960551;28;19914;-89
2021/03/12 05:14:58;;;;;;;;;;;4.90;99.90;;;;;;4960304;28;19917;-89
2021/03/12 05:17:36;;;;;;;;;;;4.90;99.90;;;;;;4979990;28;19914;-89
2021/03/12 05:20:10;;;;;;;;;;;4.90;99.90;;;;;;4962429;28;20326;-90
2021/03/12 05:22:36;;;;;;;;;;;4.80;99.90;;;;;;4959442;28;20433;-89
2021/03/12 05:25:05;;;;;;;;;;;4.80;99.90;;;;;;4962907;28;19910;-89
2021/03/12 05:27:40;;;;;;;;;;;4.80;99.90;;;;;;4963590;28;19911;-89
2021/03/12 05:30:10;;;;;;;;;;;4.80;99.90;;;;;;4960601;28;20256;-88
2021/03/12 05:32:44;;;;;;;;;;;4.70;99.90;;;;;;4980697;28;20351;-89
2021/03/12 05:35:49;;;;;;;;;;;4.70;99.90;;;;;;4977666;28;19910;-89
2021/03/12 05:38:22;;;;;;;;;;;4.70;99.90;;;;;;4980154;28;19910;-89
2021/03/12 05:40:54;;;;;;;;;;;4.80;99.90;;;;;;4974969;28;20416;-89
2021/03/12 05:43:31;;;;;;;;;;;4.80;99.90;;;;;;4960554;28;19970;-89
2021/03/12 05:46:03;;;;;;;;;;;4.70;99.90;;;;;;4960503;28;20363;-89
2021/03/12 05:48:33;;;;;;;;;;;4.70;99.90;;;;;;4979267;28;19917;-89
2021/03/12 05:51:09;;;;;;;;;;;4.70;99.90;;;;;;4977487;28;20378;-88
2021/03/12 05:53:48;;;;;;;;;;;4.70;99.90;;;;;;4976520;28;19914;-88
2021/03/12 05:56:17;;;;;;;;;;;4.70;99.90;;;;;;4957342;28;20364;-89
2021/03/12 05:58:45;;;;;;;;;;;4.80;99.90;;;;;;4958047;29;19942;-90
2021/03/12 06:01:23;;;;;;;;;;;4.70;99.90;;;;;;4954963;29;19926;-89
2021/03/12 06:03:59;;;;;;;;;;;4.80;99.90;;;;;;4957906;29;19915;-88
2021/03/12 06:06:34;;;;;;;;;;;4.70;99.90;;;;;;4958353;29;20470;-89
2021/03/12 06:09:12;;;;;;;;;;;4.70;99.90;;;;;;4954782;29;19960;-88
2021/03/12 06:11:41;;;;;;;;;;;4.70;99.90;;;;;;4957664;29;20380;-89
2021/03/12 06:14:16;;;;;;;;;;;4.80;99.90;;;;;;4957706;29;19910;-86
2021/03/12 06:16:54;;;;;;;;;;;4.80;99.90;;;;;;4957198;29;19917;-87
2021/03/12 06:19:36;;;;;;;;;;;4.80;99.90;;;;;;4956866;29;19965;-88
2021/03/12 06:22:09;;;;;;;;;;;4.90;99.90;;;;;;4955093;29;19926;-86
2021/03/12 06:24:44;;;;;;;;;;;4.90;99.90;;;;;;4957080;28;20041;-87
2021/03/12 06:27:22;;;;;;;;;;;5.00;99.90;;;;;;4966451;28;20005;-88
2021/03/12 06:29:50;;;;;;;;;;;5.00;99.90;;;;;;4960208;28;19911;-87
2021/03/12 06:32:44;;;;;;;;;;;5.10;99.90;;;;;;4976462;28;19929;-89
2021/03/12 06:35:14;;;;;;;;;;;5.10;99.90;;;;;;4961541;28;19917;-88
2021/03/12 06:37:47;;;;;;;;;;;5.10;99.90;;;;;;4961528;28;19934;-87
2021/03/12 06:40:18;;;;;;;;;;;5.10;99.90;;;;;;4957885;28;19973;-88
2021/03/12 06:43:03;;;;;;;;;;;5.10;99.90;;;;;;4977775;28;19918;-88
2021/03/12 06:45:37;;;;;;;;;;;5.10;99.90;;;;;;4978742;28;19965;-88
2021/03/12 06:48:22;;;;;;;;;;;5.20;99.90;;;;;;4978205;28;19956;-87
2021/03/12 06:50:53;;;;;;;;;;;5.10;99.90;;;;;;4978659;28;19918;-89
2021/03/12 06:53:21;;;;;;;;;;;5.20;99.90;;;;;;4961689;28;19910;-88
2021/03/12 06:55:50;;;;;;;;;;;5.20;99.90;;;;;;4978674;28;19914;-88
2021/03/12 06:58:20;;;;;;;;;;;5.30;99.90;;;;;;4935497;29;19918;-89
2021/03/12 07:00:50;;;;;;;;;;;5.30;99.90;;;;;;4952438;29;19919;-89
2021/03/12 07:03:31;;;;;;;;;;;5.30;99.90;;;;;;4923627;29;20021;-88
2021/03/12 07:06:01;;;;;;;;;;;5.30;99.90;;;;;;4936970;29;20015;-88
2021/03/12 07:08:44;;;;;;;;;;;5.30;99.90;;;;;;4938125;29;19918;-88
2021/03/12 07:11:27;;;;;;;;;;;5.40;99.90;;;;;;4915645;29;19954;-87
2021/03/12 07:14:07;;;;;;;;;;;5.40;99.90;;;;;;4922619;29;19910;-88
2021/03/12 07:16:41;;;;;;;;;;;5.50;99.90;;;;;;4939644;29;19946;-89
2021/03/12 07:19:29;;;;;;;;;;;5.60;99.90;;;;;;4938449;29;19950;-89
2021/03/12 07:22:16;;;;;;;;;;;5.70;99.90;;;;;;4940846;29;19919;-88
